sensor_id;sensor_type;location;lat;lon;timestamp;P1;durP1;ratioP1;P2;durP2;ratioP2
74620;SDS011;64861;47.546;19.254;2022-11-23T00:00:58;10.90;;;4.00;;
74620;SDS011;64861;47.546;19.254;2022-11-23T00:03:23;11.25;;;4.35;;
74620;SDS011;64861;47.546;19.254;2022-11-23T00:05:49;8.82;;;3.63;;
74620;SDS011;64861;47.546;19.254;2022-11-23T00:08:15;16.75;;;3.83;;
74620;SDS011;64861;47.546;19.254;2022-11-23T00:10:40;13.75;;;4.28;;
74620;SDS011;64861;47.546;19.254;2022-11-23T00:13:06;11.93;;;3.60;;
74620;SDS011;64861;47.546;19.254;2022-11-23T00:15:31;9.73;;;4.13;;
74620;SDS011;64861;47.546;19.254;2022-11-23T00:17:57;14.85;;;3.58;;
74620;SDS011;64861;47.546;19.254;2022-11-23T00:20:24;12.48;;;3.60;;
74620;SDS011;64861;47.546;19.254;2022-11-23T00:22:49;9.75;;;3.60;;
74620;SDS011;64861;47.546;19.254;2022-11-23T00:25:15;13.77;;;4.03;;
74620;SDS011;64861;47.546;19.254;2022-11-23T00:27:40;28.65;;;3.88;;
74620;SDS011;64861;47.546;19.254;2022-11-23T00:30:06;13.95;;;3.90;;
74620;SDS011;64861;47.546;19.254;2022-11-23T00:32:32;13.43;;;3.97;;
74620;SDS011;64861;47.546;19.254;2022-11-23T00:34:58;16.52;;;3.80;;
74620;SDS011;64861;47.546;19.254;2022-11-23T00:37:23;15.88;;;3.67;;
74620;SDS011;64861;47.546;19.254;2022-11-23T00:39:48;16.90;;;3.67;;
74620;SDS011;64861;47.546;19.254;2022-11-23T00:42:14;18.40;;;3.90;;
74620;SDS011;64861;47.546;19.254;2022-11-23T00:44:39;19.60;;;4.10;;
74620;SDS011;64861;47.546;19.254;2022-11-23T00:47:05;12.65;;;3.60;;
74620;SDS011;64861;47.546;19.254;2022-11-23T00:49:30;12.65;;;3.60;;
74620;SDS011;64861;47.546;19.254;2022-11-23T00:51:55;13.32;;;3.40;;
74620;SDS011;64861;47.546;19.254;2022-11-23T00:54:21;9.32;;;3.30;;
74620;SDS011;64861;47.546;19.254;2022-11-23T00:56:46;15.27;;;3.63;;
74620;SDS011;64861;47.546;19.254;2022-11-23T00:59:12;7.95;;;3.30;;
74620;SDS011;64861;47.546;19.254;2022-11-23T01:01:37;11.35;;;3.55;;
74620;SDS011;64861;47.546;19.254;2022-11-23T01:04:04;12.50;;;3.42;;
74620;SDS011;64861;47.546;19.254;2022-11-23T01:06:35;14.60;;;3.58;;
74620;SDS011;64861;47.546;19.254;2022-11-23T01:09:04;10.13;;;3.10;;
74620;SDS011;64861;47.546;19.254;2022-11-23T01:11:37;11.57;;;3.22;;
74620;SDS011;64861;47.546;19.254;2022-11-23T01:14:02;10.38;;;3.15;;
74620;SDS011;64861;47.546;19.254;2022-11-23T01:16:35;8.95;;;3.10;;
74620;SDS011;64861;47.546;19.254;2022-11-23T01:19:10;10.80;;;3.20;;
74620;SDS011;64861;47.546;19.254;2022-11-23T01:21:37;11.75;;;2.90;;
74620;SDS011;64861;47.546;19.254;2022-11-23T01:24:04;10.90;;;2.95;;
74620;SDS011;64861;47.546;19.254;2022-11-23T01:26:40;6.40;;;2.97;;
74620;SDS011;64861;47.546;19.254;2022-11-23T01:29:06;9.05;;;2.97;;
74620;SDS011;64861;47.546;19.254;2022-11-23T01:31:31;8.50;;;2.90;;
74620;SDS011;64861;47.546;19.254;2022-11-23T01:33:58;7.90;;;3.00;;
74620;SDS011;64861;47.546;19.254;2022-11-23T01:36:25;10.45;;;3.00;;
74620;SDS011;64861;47.546;19.254;2022-11-23T01:38:52;8.43;;;3.00;;
74620;SDS011;64861;47.546;19.254;2022-11-23T01:41:18;8.80;;;2.85;;
74620;SDS011;64861;47.546;19.254;2022-11-23T01:43:48;9.20;;;2.50;;
74620;SDS011;64861;47.546;19.254;2022-11-23T01:46:15;9.05;;;3.03;;
74620;SDS011;64861;47.546;19.254;2022-11-23T01:48:45;6.03;;;2.60;;
74620;SDS011;64861;47.546;19.254;2022-11-23T01:51:33;6.75;;;2.80;;
74620;SDS011;64861;47.546;19.254;2022-11-23T01:54:04;5.82;;;2.53;;
74620;SDS011;64861;47.546;19.254;2022-11-23T01:56:34;8.57;;;2.88;;
74620;SDS011;64861;47.546;19.254;2022-11-23T01:59:11;8.25;;;2.67;;
74620;SDS011;64861;47.546;19.254;2022-11-23T02:01:40;10.27;;;2.67;;
74620;SDS011;64861;47.546;19.254;2022-11-23T02:04:07;6.05;;;2.78;;
74620;SDS011;64861;47.546;19.254;2022-11-23T02:06:37;6.40;;;2.60;;
74620;SDS011;64861;47.546;19.254;2022-11-23T02:09:03;5.57;;;2.13;;
74620;SDS011;64861;47.546;19.254;2022-11-23T02:11:29;7.00;;;2.53;;
74620;SDS011;64861;47.546;19.254;2022-11-23T02:13:55;7.40;;;2.33;;
74620;SDS011;64861;47.546;19.254;2022-11-23T02:16:21;7.80;;;2.58;;
74620;SDS011;64861;47.546;19.254;2022-11-23T02:18:47;7.88;;;2.45;;
74620;SDS011;64861;47.546;19.254;2022-11-23T02:21:15;5.78;;;2.65;;
74620;SDS011;64861;47.546;19.254;2022-11-23T02:24:01;7.03;;;2.30;;
74620;SDS011;64861;47.546;19.254;2022-11-23T02:26:34;5.38;;;2.08;;
74620;SDS011;64861;47.546;19.254;2022-11-23T02:34:10;8.32;;;2.33;;
74620;SDS011;64861;47.546;19.254;2022-11-23T02:39:06;5.80;;;2.47;;
74620;SDS011;64861;47.546;19.254;2022-11-23T02:41:38;6.03;;;2.25;;
74620;SDS011;64861;47.546;19.254;2022-11-23T02:44:17;5.80;;;2.40;;
74620;SDS011;64861;47.546;19.254;2022-11-23T02:46:54;5.65;;;2.10;;
74620;SDS011;64861;47.546;19.254;2022-11-23T02:49:19;4.57;;;2.10;;
74620;SDS011;64861;47.546;19.254;2022-11-23T02:51:45;5.85;;;2.20;;
74620;SDS011;64861;47.546;19.254;2022-11-23T02:54:10;4.53;;;2.03;;
74620;SDS011;64861;47.546;19.254;2022-11-23T02:56:36;6.32;;;2.60;;
74620;SDS011;64861;47.546;19.254;2022-11-23T02:59:01;4.28;;;2.05;;
74620;SDS011;64861;47.546;19.254;2022-11-23T03:01:27;4.30;;;2.20;;
74620;SDS011;64861;47.546;19.254;2022-11-23T03:03:53;5.72;;;2.28;;
74620;SDS011;64861;47.546;19.254;2022-11-23T03:06:18;4.65;;;2.20;;
74620;SDS011;64861;47.546;19.254;2022-11-23T03:08:44;3.47;;;1.92;;
74620;SDS011;64861;47.546;19.254;2022-11-23T03:11:09;5.13;;;2.13;;
74620;SDS011;64861;47.546;19.254;2022-11-23T03:13:35;4.68;;;2.08;;
74620;SDS011;64861;47.546;19.254;2022-11-23T03:16:00;4.93;;;2.00;;
74620;SDS011;64861;47.546;19.254;2022-11-23T03:18:26;4.90;;;1.90;;
74620;SDS011;64861;47.546;19.254;2022-11-23T03:20:51;4.70;;;2.10;;
74620;SDS011;64861;47.546;19.254;2022-11-23T03:23:16;4.43;;;2.00;;
74620;SDS011;64861;47.546;19.254;2022-11-23T03:25:42;7.18;;;2.20;;
74620;SDS011;64861;47.546;19.254;2022-11-23T03:28:07;5.88;;;1.77;;
74620;SDS011;64861;47.546;19.254;2022-11-23T03:30:33;7.38;;;2.38;;
74620;SDS011;64861;47.546;19.254;2022-11-23T03:32:58;5.38;;;2.22;;
74620;SDS011;64861;47.546;19.254;2022-11-23T03:35:24;4.35;;;1.92;;
74620;SDS011;64861;47.546;19.254;2022-11-23T03:37:49;5.20;;;2.10;;
74620;SDS011;64861;47.546;19.254;2022-11-23T03:40:15;7.70;;;2.10;;
74620;SDS011;64861;47.546;19.254;2022-11-23T03:42:40;4.80;;;2.25;;
74620;SDS011;64861;47.546;19.254;2022-11-23T03:45:06;5.85;;;1.83;;
74620;SDS011;64861;47.546;19.254;2022-11-23T03:47:33;6.65;;;1.92;;
74620;SDS011;64861;47.546;19.254;2022-11-23T03:49:58;6.80;;;2.00;;
74620;SDS011;64861;47.546;19.254;2022-11-23T03:52:24;4.68;;;1.95;;
74620;SDS011;64861;47.546;19.254;2022-11-23T03:54:49;5.03;;;1.85;;
74620;SDS011;64861;47.546;19.254;2022-11-23T03:57:15;5.68;;;2.10;;
74620;SDS011;64861;47.546;19.254;2022-11-23T03:59:40;3.55;;;1.75;;
74620;SDS011;64861;47.546;19.254;2022-11-23T04:02:06;4.93;;;1.90;;
74620;SDS011;64861;47.546;19.254;2022-11-23T04:04:32;5.65;;;1.88;;
74620;SDS011;64861;47.546;19.254;2022-11-23T04:06:58;3.85;;;1.77;;
74620;SDS011;64861;47.546;19.254;2022-11-23T04:09:23;4.35;;;1.88;;
74620;SDS011;64861;47.546;19.254;2022-11-23T04:11:49;4.72;;;2.00;;
74620;SDS011;64861;47.546;19.254;2022-11-23T04:14:15;4.97;;;2.00;;
74620;SDS011;64861;47.546;19.254;2022-11-23T04:16:40;4.75;;;1.90;;
74620;SDS011;64861;47.546;19.254;2022-11-23T04:19:06;4.90;;;1.77;;
74620;SDS011;64861;47.546;19.254;2022-11-23T04:21:31;5.45;;;1.80;;
74620;SDS011;64861;47.546;19.254;2022-11-23T04:23:56;3.90;;;1.63;;
74620;SDS011;64861;47.546;19.254;2022-11-23T04:26:22;3.58;;;1.70;;
74620;SDS011;64861;47.546;19.254;2022-11-23T04:28:47;5.70;;;2.00;;
74620;SDS011;64861;47.546;19.254;2022-11-23T04:31:13;3.95;;;1.70;;
74620;SDS011;64861;47.546;19.254;2022-11-23T04:33:38;4.35;;;1.80;;
74620;SDS011;64861;47.546;19.254;2022-11-23T04:36:04;4.18;;;1.65;;
74620;SDS011;64861;47.546;19.254;2022-11-23T04:38:29;3.20;;;1.63;;
74620;SDS011;64861;47.546;19.254;2022-11-23T04:40:55;4.60;;;1.70;;
74620;SDS011;64861;47.546;19.254;2022-11-23T04:43:20;4.95;;;1.70;;
74620;SDS011;64861;47.546;19.254;2022-11-23T04:45:46;3.15;;;1.63;;
74620;SDS011;64861;47.546;19.254;2022-11-23T04:48:11;3.35;;;1.70;;
74620;SDS011;64861;47.546;19.254;2022-11-23T04:50:37;4.88;;;1.83;;
74620;SDS011;64861;47.546;19.254;2022-11-23T04:53:03;3.55;;;1.65;;
74620;SDS011;64861;47.546;19.254;2022-11-23T04:55:29;3.47;;;1.52;;
74620;SDS011;64861;47.546;19.254;2022-11-23T04:57:54;3.70;;;1.60;;
74620;SDS011;64861;47.546;19.254;2022-11-23T05:00:20;4.13;;;1.52;;
74620;SDS011;64861;47.546;19.254;2022-11-23T05:02:45;4.15;;;1.90;;
74620;SDS011;64861;47.546;19.254;2022-11-23T05:05:11;2.70;;;1.48;;
74620;SDS011;64861;47.546;19.254;2022-11-23T05:07:36;5.65;;;1.60;;
74620;SDS011;64861;47.546;19.254;2022-11-23T05:10:02;4.30;;;1.85;;
74620;SDS011;64861;47.546;19.254;2022-11-23T05:12:28;2.97;;;1.38;;
74620;SDS011;64861;47.546;19.254;2022-11-23T05:14:54;3.58;;;1.50;;
74620;SDS011;64861;47.546;19.254;2022-11-23T05:17:19;3.60;;;1.65;;
74620;SDS011;64861;47.546;19.254;2022-11-23T05:19:44;2.80;;;1.50;;
74620;SDS011;64861;47.546;19.254;2022-11-23T05:22:10;3.58;;;1.60;;
74620;SDS011;64861;47.546;19.254;2022-11-23T05:24:35;3.83;;;1.65;;
74620;SDS011;64861;47.546;19.254;2022-11-23T05:27:01;2.45;;;1.40;;
74620;SDS011;64861;47.546;19.254;2022-11-23T05:29:26;3.85;;;1.80;;
74620;SDS011;64861;47.546;19.254;2022-11-23T05:31:52;3.30;;;1.40;;
74620;SDS011;64861;47.546;19.254;2022-11-23T05:34:18;3.85;;;1.52;;
74620;SDS011;64861;47.546;19.254;2022-11-23T05:36:44;3.58;;;1.67;;
74620;SDS011;64861;47.546;19.254;2022-11-23T05:39:09;3.20;;;1.40;;
74620;SDS011;64861;47.546;19.254;2022-11-23T05:41:35;3.53;;;1.40;;
74620;SDS011;64861;47.546;19.254;2022-11-23T05:44:00;3.80;;;1.60;;
74620;SDS011;64861;47.546;19.254;2022-11-23T05:46:26;3.78;;;1.50;;
74620;SDS011;64861;47.546;19.254;2022-11-23T05:48:51;3.75;;;1.60;;
74620;SDS011;64861;47.546;19.254;2022-11-23T05:51:17;3.63;;;1.55;;
74620;SDS011;64861;47.546;19.254;2022-11-23T05:53:42;3.38;;;1.38;;
74620;SDS011;64861;47.546;19.254;2022-11-23T05:56:08;4.38;;;1.60;;
74620;SDS011;64861;47.546;19.254;2022-11-23T05:58:33;3.47;;;1.50;;
74620;SDS011;64861;47.546;19.254;2022-11-23T06:01:01;3.90;;;1.55;;
74620;SDS011;64861;47.546;19.254;2022-11-23T06:03:26;3.53;;;1.45;;
74620;SDS011;64861;47.546;19.254;2022-11-23T06:05:52;3.30;;;1.60;;
74620;SDS011;64861;47.546;19.254;2022-11-23T06:08:18;2.92;;;1.40;;
74620;SDS011;64861;47.546;19.254;2022-11-23T06:10:43;2.53;;;1.33;;
74620;SDS011;64861;47.546;19.254;2022-11-23T06:13:08;3.58;;;1.50;;
74620;SDS011;64861;47.546;19.254;2022-11-23T06:15:34;3.97;;;1.67;;
74620;SDS011;64861;47.546;19.254;2022-11-23T06:17:59;3.67;;;1.50;;
74620;SDS011;64861;47.546;19.254;2022-11-23T06:20:26;4.40;;;1.60;;
74620;SDS011;64861;47.546;19.254;2022-11-23T06:22:53;4.93;;;1.75;;
74620;SDS011;64861;47.546;19.254;2022-11-23T06:25:20;8.60;;;1.80;;
74620;SDS011;64861;47.546;19.254;2022-11-23T06:27:53;14.82;;;2.13;;
74620;SDS011;64861;47.546;19.254;2022-11-23T06:30:18;10.17;;;1.87;;
74620;SDS011;64861;47.546;19.254;2022-11-23T06:32:44;11.35;;;1.88;;
74620;SDS011;64861;47.546;19.254;2022-11-23T06:35:09;13.80;;;2.00;;
74620;SDS011;64861;47.546;19.254;2022-11-23T06:37:35;11.82;;;2.40;;
74620;SDS011;64861;47.546;19.254;2022-11-23T06:40:00;13.30;;;2.33;;
74620;SDS011;64861;47.546;19.254;2022-11-23T06:42:25;9.68;;;1.90;;
74620;SDS011;64861;47.546;19.254;2022-11-23T06:44:51;11.00;;;1.98;;
74620;SDS011;64861;47.546;19.254;2022-11-23T06:47:16;11.70;;;2.17;;
74620;SDS011;64861;47.546;19.254;2022-11-23T06:49:42;9.00;;;1.98;;
74620;SDS011;64861;47.546;19.254;2022-11-23T06:52:07;9.15;;;1.92;;
74620;SDS011;64861;47.546;19.254;2022-11-23T06:54:32;6.18;;;1.95;;
74620;SDS011;64861;47.546;19.254;2022-11-23T06:56:58;7.80;;;2.03;;
74620;SDS011;64861;47.546;19.254;2022-11-23T06:59:23;5.55;;;2.10;;
74620;SDS011;64861;47.546;19.254;2022-11-23T07:01:49;7.22;;;2.05;;
74620;SDS011;64861;47.546;19.254;2022-11-23T07:04:14;8.73;;;2.10;;
74620;SDS011;64861;47.546;19.254;2022-11-23T07:06:40;7.57;;;2.20;;
74620;SDS011;64861;47.546;19.254;2022-11-23T07:09:05;15.90;;;2.65;;
74620;SDS011;64861;47.546;19.254;2022-11-23T07:11:31;16.58;;;2.83;;
74620;SDS011;64861;47.546;19.254;2022-11-23T07:13:56;28.02;;;3.67;;
74620;SDS011;64861;47.546;19.254;2022-11-23T07:16:22;26.58;;;3.00;;
74620;SDS011;64861;47.546;19.254;2022-11-23T07:18:47;40.42;;;3.40;;
74620;SDS011;64861;47.546;19.254;2022-11-23T07:21:13;38.88;;;3.78;;
74620;SDS011;64861;47.546;19.254;2022-11-23T07:23:38;28.60;;;2.92;;
74620;SDS011;64861;47.546;19.254;2022-11-23T07:26:06;27.90;;;2.80;;
74620;SDS011;64861;47.546;19.254;2022-11-23T07:28:33;22.73;;;3.08;;
74620;SDS011;64861;47.546;19.254;2022-11-23T07:30:58;24.30;;;2.65;;
74620;SDS011;64861;47.546;19.254;2022-11-23T07:33:24;16.77;;;2.55;;
74620;SDS011;64861;47.546;19.254;2022-11-23T07:35:49;16.50;;;2.50;;
74620;SDS011;64861;47.546;19.254;2022-11-23T07:38:15;46.75;;;3.30;;
74620;SDS011;64861;47.546;19.254;2022-11-23T07:40:40;22.77;;;2.90;;
74620;SDS011;64861;47.546;19.254;2022-11-23T07:43:05;20.70;;;3.15;;
74620;SDS011;64861;47.546;19.254;2022-11-23T07:45:31;14.75;;;2.83;;
74620;SDS011;64861;47.546;19.254;2022-11-23T07:48:02;17.65;;;2.53;;
74620;SDS011;64861;47.546;19.254;2022-11-23T07:50:29;14.02;;;2.33;;
74620;SDS011;64861;47.546;19.254;2022-11-23T07:52:54;11.00;;;2.50;;
74620;SDS011;64861;47.546;19.254;2022-11-23T07:55:20;17.75;;;2.50;;
74620;SDS011;64861;47.546;19.254;2022-11-23T07:57:50;17.05;;;2.30;;
74620;SDS011;64861;47.546;19.254;2022-11-23T08:00:16;12.60;;;2.50;;
74620;SDS011;64861;47.546;19.254;2022-11-23T08:02:42;11.45;;;2.22;;
74620;SDS011;64861;47.546;19.254;2022-11-23T08:05:07;14.68;;;2.28;;
74620;SDS011;64861;47.546;19.254;2022-11-23T08:07:32;21.58;;;2.17;;
74620;SDS011;64861;47.546;19.254;2022-11-23T08:09:58;11.63;;;2.30;;
74620;SDS011;64861;47.546;19.254;2022-11-23T08:12:23;8.63;;;2.00;;
74620;SDS011;64861;47.546;19.254;2022-11-23T08:14:49;15.75;;;2.80;;
74620;SDS011;64861;47.546;19.254;2022-11-23T08:17:14;15.02;;;2.13;;
74620;SDS011;64861;47.546;19.254;2022-11-23T08:19:39;10.32;;;2.38;;
74620;SDS011;64861;47.546;19.254;2022-11-23T08:22:05;9.98;;;2.33;;
74620;SDS011;64861;47.546;19.254;2022-11-23T08:24:30;12.57;;;2.33;;
74620;SDS011;64861;47.546;19.254;2022-11-23T08:26:56;7.75;;;1.98;;
74620;SDS011;64861;47.546;19.254;2022-11-23T08:29:21;14.52;;;2.13;;
74620;SDS011;64861;47.546;19.254;2022-11-23T08:31:46;12.57;;;2.40;;
74620;SDS011;64861;47.546;19.254;2022-11-23T08:34:12;5.45;;;1.80;;
74620;SDS011;64861;47.546;19.254;2022-11-23T08:36:38;13.02;;;1.95;;
74620;SDS011;64861;47.546;19.254;2022-11-23T08:39:03;5.93;;;2.00;;
74620;SDS011;64861;47.546;19.254;2022-11-23T08:41:29;8.38;;;1.95;;
74620;SDS011;64861;47.546;19.254;2022-11-23T08:43:54;12.75;;;2.10;;
74620;SDS011;64861;47.546;19.254;2022-11-23T08:46:20;6.45;;;2.20;;
74620;SDS011;64861;47.546;19.254;2022-11-23T08:48:45;4.70;;;1.77;;
74620;SDS011;64861;47.546;19.254;2022-11-23T08:51:11;8.77;;;1.90;;
74620;SDS011;64861;47.546;19.254;2022-11-23T08:53:36;5.95;;;1.70;;
74620;SDS011;64861;47.546;19.254;2022-11-23T08:56:02;8.65;;;1.90;;
74620;SDS011;64861;47.546;19.254;2022-11-23T08:58:30;9.27;;;1.83;;
74620;SDS011;64861;47.546;19.254;2022-11-23T09:00:56;5.28;;;1.60;;
74620;SDS011;64861;47.546;19.254;2022-11-23T09:03:21;5.35;;;1.48;;
74620;SDS011;64861;47.546;19.254;2022-11-23T09:05:47;7.15;;;1.90;;
74620;SDS011;64861;47.546;19.254;2022-11-23T09:08:12;5.00;;;1.52;;
74620;SDS011;64861;47.546;19.254;2022-11-23T09:10:40;6.93;;;1.70;;
74620;SDS011;64861;47.546;19.254;2022-11-23T09:13:05;5.65;;;1.77;;
74620;SDS011;64861;47.546;19.254;2022-11-23T09:15:31;5.10;;;1.30;;
74620;SDS011;64861;47.546;19.254;2022-11-23T09:17:56;4.80;;;1.52;;
74620;SDS011;64861;47.546;19.254;2022-11-23T09:20:22;4.20;;;1.48;;
74620;SDS011;64861;47.546;19.254;2022-11-23T09:22:54;5.70;;;1.90;;
74620;SDS011;64861;47.546;19.254;2022-11-23T09:25:20;3.63;;;1.40;;
74620;SDS011;64861;47.546;19.254;2022-11-23T09:27:46;5.70;;;1.48;;
74620;SDS011;64861;47.546;19.254;2022-11-23T09:30:13;3.67;;;1.30;;
74620;SDS011;64861;47.546;19.254;2022-11-23T09:32:39;4.20;;;1.58;;
74620;SDS011;64861;47.546;19.254;2022-11-23T09:35:05;7.32;;;1.83;;
74620;SDS011;64861;47.546;19.254;2022-11-23T09:37:31;6.32;;;1.67;;
74620;SDS011;64861;47.546;19.254;2022-11-23T09:39:56;11.00;;;1.70;;
74620;SDS011;64861;47.546;19.254;2022-11-23T09:45:22;8.00;;;1.50;;
74620;SDS011;64861;47.546;19.254;2022-11-23T09:51:00;10.48;;;1.95;;
74620;SDS011;64861;47.546;19.254;2022-11-23T09:53:32;10.55;;;1.90;;
74620;SDS011;64861;47.546;19.254;2022-11-23T09:56:02;11.15;;;2.20;;
74620;SDS011;64861;47.546;19.254;2022-11-23T09:58:30;10.20;;;2.08;;
74620;SDS011;64861;47.546;19.254;2022-11-23T10:01:03;14.30;;;2.35;;
74620;SDS011;64861;47.546;19.254;2022-11-23T10:03:32;27.67;;;2.50;;
74620;SDS011;64861;47.546;19.254;2022-11-23T10:06:17;27.80;;;2.90;;
74620;SDS011;64861;47.546;19.254;2022-11-23T10:17:02;43.25;;;4.68;;
74620;SDS011;64861;47.546;19.254;2022-11-23T10:22:19;71.50;;;5.63;;
74620;SDS011;64861;47.546;19.254;2022-11-23T10:24:51;69.63;;;5.50;;
74620;SDS011;64861;47.546;19.254;2022-11-23T10:27:21;152.68;;;9.90;;
74620;SDS011;64861;47.546;19.254;2022-11-23T10:29:48;148.02;;;10.98;;
74620;SDS011;64861;47.546;19.254;2022-11-23T10:32:29;117.88;;;8.70;;
74620;SDS011;64861;47.546;19.254;2022-11-23T10:37:39;112.72;;;8.50;;
74620;SDS011;64861;47.546;19.254;2022-11-23T10:40:14;118.53;;;9.05;;
74620;SDS011;64861;47.546;19.254;2022-11-23T10:42:41;129.73;;;10.38;;
74620;SDS011;64861;47.546;19.254;2022-11-23T10:45:21;182.70;;;12.52;;
74620;SDS011;64861;47.546;19.254;2022-11-23T10:47:52;203.88;;;12.75;;
74620;SDS011;64861;47.546;19.254;2022-11-23T10:50:29;187.32;;;13.98;;
74620;SDS011;64861;47.546;19.254;2022-11-23T10:53:00;203.15;;;15.13;;
74620;SDS011;64861;47.546;19.254;2022-11-23T10:55:47;304.35;;;20.65;;
74620;SDS011;64861;47.546;19.254;2022-11-23T10:58:29;311.90;;;21.45;;
74620;SDS011;64861;47.546;19.254;2022-11-23T11:01:05;357.15;;;24.65;;
74620;SDS011;64861;47.546;19.254;2022-11-23T11:03:36;368.13;;;26.52;;
74620;SDS011;64861;47.546;19.254;2022-11-23T11:06:02;418.92;;;30.35;;
74620;SDS011;64861;47.546;19.254;2022-11-23T11:09:16;387.95;;;29.23;;
74620;SDS011;64861;47.546;19.254;2022-11-23T11:11:25;375.20;;;26.95;;
74620;SDS011;64861;47.546;19.254;2022-11-23T11:14:35;364.45;;;27.27;;
74620;SDS011;64861;47.546;19.254;2022-11-23T11:16:48;464.75;;;35.17;;
74620;SDS011;64861;47.546;19.254;2022-11-23T11:19:31;337.13;;;26.05;;
74620;SDS011;64861;47.546;19.254;2022-11-23T11:21:59;331.77;;;26.27;;
74620;SDS011;64861;47.546;19.254;2022-11-23T11:24:30;396.27;;;29.52;;
74620;SDS011;64861;47.546;19.254;2022-11-23T11:29:31;314.10;;;25.75;;
74620;SDS011;64861;47.546;19.254;2022-11-23T11:32:03;305.58;;;24.15;;
74620;SDS011;64861;47.546;19.254;2022-11-23T11:34:52;1976.45;;;188.43;;
74620;SDS011;64861;47.546;19.254;2022-11-23T11:37:39;1854.88;;;177.15;;
74620;SDS011;64861;47.546;19.254;2022-11-23T11:45:54;1036.15;;;92.05;;
74620;SDS011;64861;47.546;19.254;2022-11-23T11:51:23;805.85;;;75.13;;
74620;SDS011;64861;47.546;19.254;2022-11-23T11:56:29;684.13;;;64.82;;
74620;SDS011;64861;47.546;19.254;2022-11-23T11:59:18;672.28;;;62.65;;
74620;SDS011;64861;47.546;19.254;2022-11-23T12:02:06;601.45;;;53.10;;
74620;SDS011;64861;47.546;19.254;2022-11-23T12:10:09;594.38;;;49.10;;
74620;SDS011;64861;47.546;19.254;2022-11-23T12:12:39;572.90;;;49.30;;
74620;SDS011;64861;47.546;19.254;2022-11-23T12:15:05;521.78;;;45.70;;
74620;SDS011;64861;47.546;19.254;2022-11-23T12:23:20;498.02;;;43.35;;
74620;SDS011;64861;47.546;19.254;2022-11-23T12:25:57;491.73;;;41.90;;
74620;SDS011;64861;47.546;19.254;2022-11-23T12:31:42;467.33;;;39.53;;
74620;SDS011;64861;47.546;19.254;2022-11-23T12:40:06;435.50;;;37.17;;
74620;SDS011;64861;47.546;19.254;2022-11-23T12:42:45;463.58;;;38.33;;
74620;SDS011;64861;47.546;19.254;2022-11-23T12:58:42;442.75;;;37.97;;
74620;SDS011;64861;47.546;19.254;2022-11-23T13:06:53;435.23;;;36.58;;
74620;SDS011;64861;47.546;19.254;2022-11-23T13:22:49;387.95;;;35.58;;
74620;SDS011;64861;47.546;19.254;2022-11-23T13:25:26;378.42;;;32.08;;
74620;SDS011;64861;47.546;19.254;2022-11-23T13:30:21;353.58;;;31.48;;
74620;SDS011;64861;47.546;19.254;2022-11-23T13:40:31;373.73;;;30.65;;
74620;SDS011;64861;47.546;19.254;2022-11-23T13:42:59;446.20;;;35.35;;
74620;SDS011;64861;47.546;19.254;2022-11-23T13:45:29;427.88;;;34.50;;
74620;SDS011;64861;47.546;19.254;2022-11-23T13:53:01;485.17;;;38.10;;
74620;SDS011;64861;47.546;19.254;2022-11-23T14:11:47;494.30;;;42.83;;
74620;SDS011;64861;47.546;19.254;2022-11-23T14:14:21;523.63;;;41.28;;
74620;SDS011;64861;47.546;19.254;2022-11-23T14:17:04;486.83;;;40.78;;
74620;SDS011;64861;47.546;19.254;2022-11-23T14:25:17;545.95;;;46.72;;
74620;SDS011;64861;47.546;19.254;2022-11-23T14:28:28;522.53;;;44.33;;
74620;SDS011;64861;47.546;19.254;2022-11-23T14:42:16;571.38;;;50.90;;
74620;SDS011;64861;47.546;19.254;2022-11-23T14:44:44;573.45;;;50.15;;
74620;SDS011;64861;47.546;19.254;2022-11-23T14:47:11;545.65;;;47.20;;
74620;SDS011;64861;47.546;19.254;2022-11-23T14:49:47;522.60;;;46.72;;
74620;SDS011;64861;47.546;19.254;2022-11-23T14:52:16;481.27;;;42.50;;
74620;SDS011;64861;47.546;19.254;2022-11-23T14:54:51;489.00;;;45.05;;
74620;SDS011;64861;47.546;19.254;2022-11-23T14:57:19;452.38;;;42.08;;
74620;SDS011;64861;47.546;19.254;2022-11-23T14:59:48;469.13;;;42.92;;
74620;SDS011;64861;47.546;19.254;2022-11-23T15:02:23;477.45;;;44.25;;
74620;SDS011;64861;47.546;19.254;2022-11-23T15:11:04;524.47;;;48.88;;
74620;SDS011;64861;47.546;19.254;2022-11-23T15:13:22;516.85;;;49.20;;
74620;SDS011;64861;47.546;19.254;2022-11-23T15:15:50;506.63;;;46.45;;
74620;SDS011;64861;47.546;19.254;2022-11-23T15:18:30;528.17;;;47.58;;
74620;SDS011;64861;47.546;19.254;2022-11-23T15:21:15;468.48;;;45.15;;
74620;SDS011;64861;47.546;19.254;2022-11-23T15:23:42;521.50;;;46.58;;
74620;SDS011;64861;47.546;19.254;2022-11-23T15:26:20;587.65;;;49.13;;
74620;SDS011;64861;47.546;19.254;2022-11-23T15:28:46;447.95;;;41.58;;
74620;SDS011;64861;47.546;19.254;2022-11-23T15:31:24;472.02;;;42.95;;
74620;SDS011;64861;47.546;19.254;2022-11-23T15:34:11;476.75;;;42.25;;
74620;SDS011;64861;47.546;19.254;2022-11-23T15:36:39;466.63;;;40.53;;
74620;SDS011;64861;47.546;19.254;2022-11-23T15:39:06;433.10;;;40.80;;
74620;SDS011;64861;47.546;19.254;2022-11-23T15:41:37;500.63;;;43.72;;
74620;SDS011;64861;47.546;19.254;2022-11-23T15:44:17;504.98;;;44.50;;
74620;SDS011;64861;47.546;19.254;2022-11-23T15:46:49;523.65;;;46.92;;
74620;SDS011;64861;47.546;19.254;2022-11-23T15:49:17;508.25;;;45.75;;
74620;SDS011;64861;47.546;19.254;2022-11-23T15:51:44;457.08;;;41.22;;
74620;SDS011;64861;47.546;19.254;2022-11-23T15:54:53;483.15;;;44.85;;
74620;SDS011;64861;47.546;19.254;2022-11-23T15:57:00;477.63;;;44.05;;
74620;SDS011;64861;47.546;19.254;2022-11-23T15:59:29;492.17;;;42.53;;
74620;SDS011;64861;47.546;19.254;2022-11-23T16:01:59;801.28;;;73.60;;
74620;SDS011;64861;47.546;19.254;2022-11-23T16:04:34;680.95;;;63.30;;
74620;SDS011;64861;47.546;19.254;2022-11-23T16:07:13;1295.68;;;120.50;;
74620;SDS011;64861;47.546;19.254;2022-11-23T16:10:13;1445.90;;;134.40;;
74620;SDS011;64861;47.546;19.254;2022-11-23T16:18:02;1004.40;;;97.07;;
74620;SDS011;64861;47.546;19.254;2022-11-23T16:20:29;882.88;;;88.75;;
74620;SDS011;64861;47.546;19.254;2022-11-23T16:22:55;879.90;;;88.03;;
74620;SDS011;64861;47.546;19.254;2022-11-23T16:27:58;767.63;;;74.18;;
74620;SDS011;64861;47.546;19.254;2022-11-23T16:30:51;698.63;;;69.53;;
74620;SDS011;64861;47.546;19.254;2022-11-23T16:33:17;624.88;;;61.60;;
74620;SDS011;64861;47.546;19.254;2022-11-23T16:35:44;636.60;;;60.55;;
74620;SDS011;64861;47.546;19.254;2022-11-23T16:38:10;579.38;;;57.17;;
74620;SDS011;64861;47.546;19.254;2022-11-23T16:40:42;541.58;;;53.83;;
74620;SDS011;64861;47.546;19.254;2022-11-23T16:43:11;497.30;;;49.47;;
74620;SDS011;64861;47.546;19.254;2022-11-23T16:45:38;595.80;;;55.28;;
74620;SDS011;64861;47.546;19.254;2022-11-23T16:48:28;506.52;;;45.80;;
74620;SDS011;64861;47.546;19.254;2022-11-23T16:53:25;661.20;;;60.33;;
74620;SDS011;64861;47.546;19.254;2022-11-23T16:55:54;546.15;;;51.40;;
74620;SDS011;64861;47.546;19.254;2022-11-23T16:58:21;286.10;;;44.85;;
74620;SDS011;64861;47.546;19.254;2022-11-23T17:00:50;540.65;;;56.60;;
74620;SDS011;64861;47.546;19.254;2022-11-23T17:03:16;366.85;;;50.95;;
74620;SDS011;64861;47.546;19.254;2022-11-23T17:05:43;391.00;;;49.00;;